createdAt,value
2022-10-23T00:01:17.331Z,9.92
2022-10-23T00:03:44.507Z,9.88
2022-10-23T00:06:12.730Z,9.92
2022-10-23T00:08:39.321Z,9.89
2022-10-23T00:11:14.292Z,9.88
2022-10-23T00:13:41.361Z,9.89
2022-10-23T00:16:09.299Z,9.88
2022-10-23T00:18:36.765Z,9.93
2022-10-23T00:21:04.131Z,9.92
2022-10-23T00:23:30.565Z,9.77
2022-10-23T00:25:56.891Z,9.79
2022-10-23T00:28:23.357Z,9.74
2022-10-23T00:30:49.697Z,9.70
2022-10-23T00:33:16.363Z,9.68
2022-10-23T00:35:43.267Z,9.64
2022-10-23T00:38:10.611Z,9.51
2022-10-23T00:40:38.341Z,9.46
2022-10-23T00:43:05.063Z,9.40
2022-10-23T00:45:33.399Z,9.38
2022-10-23T00:48:01.774Z,9.41
2022-10-23T00:50:30.945Z,9.32
2022-10-23T00:53:01.832Z,9.24
2022-10-23T00:55:30.136Z,9.16
2022-10-23T00:57:56.618Z,9.11
2022-10-23T01:00:22.887Z,9.16
2022-10-23T01:02:49.767Z,9.22
2022-10-23T01:05:16.380Z,9.10
2022-10-23T01:07:45.765Z,9.08
2022-10-23T01:10:18.593Z,9.03
2022-10-23T01:13:03.760Z,8.98
2022-10-23T01:15:40.792Z,8.95
2022-10-23T01:18:25.255Z,8.86
2022-10-23T01:21:18.321Z,8.90
2022-10-23T01:24:26.833Z,8.81
2022-10-23T01:27:14.294Z,8.89
2022-10-23T01:29:49.430Z,8.86
2022-10-23T01:32:35.486Z,8.79
2022-10-23T01:35:19.182Z,8.79
2022-10-23T01:37:51.119Z,8.74
2022-10-23T01:40:30.062Z,8.77
2022-10-23T01:43:02.157Z,8.76
2022-10-23T01:45:40.935Z,8.77
2022-10-23T01:48:11.953Z,8.73
2022-10-23T01:50:41.031Z,8.72
2022-10-23T01:53:08.025Z,8.61
2022-10-23T01:55:38.980Z,8.61
2022-10-23T01:58:08.358Z,8.58
2022-10-23T02:00:38.527Z,8.55
2022-10-23T02:03:07.262Z,8.54
2022-10-23T02:05:33.978Z,8.53
2022-10-23T02:08:01.148Z,8.60
2022-10-23T02:10:45.722Z,8.54
2022-10-23T02:13:29.716Z,8.53
2022-10-23T02:16:23.509Z,8.52
2022-10-23T02:18:56.030Z,8.51
2022-10-23T02:21:34.042Z,8.50
2022-10-23T02:24:09.316Z,8.58
2022-10-23T02:26:49.100Z,8.51
2022-10-23T02:29:30.921Z,8.61
2022-10-23T02:31:57.324Z,8.54
2022-10-23T02:34:23.748Z,8.50
2022-10-23T02:36:50.744Z,8.51
2022-10-23T02:39:17.075Z,8.47
2022-10-23T02:42:11.912Z,8.49
2022-10-23T02:44:55.328Z,8.56
2022-10-23T02:47:34.710Z,8.53
2022-10-23T02:50:08.067Z,8.55
2022-10-23T02:52:50.300Z,8.58
2022-10-23T02:55:41.753Z,8.66
2022-10-23T02:58:19.102Z,8.73
2022-10-23T03:00:52.235Z,8.78
2022-10-23T03:03:24.867Z,8.87
2022-10-23T03:05:51.266Z,8.90
2022-10-23T03:08:17.639Z,9.00
2022-10-23T03:10:44.290Z,9.05
2022-10-23T03:13:11.697Z,9.09
2022-10-23T03:15:37.988Z,9.19
2022-10-23T03:18:04.446Z,9.26
2022-10-23T03:20:30.861Z,9.24
2022-10-23T03:22:57.175Z,9.25
2022-10-23T03:25:23.464Z,9.30
2022-10-23T03:27:49.735Z,9.36
2022-10-23T03:30:17.291Z,9.33
2022-10-23T03:32:43.737Z,9.37
2022-10-23T03:35:10.398Z,9.34
2022-10-23T03:37:36.705Z,9.33
2022-10-23T03:40:04.507Z,9.28
2022-10-23T03:42:30.782Z,9.28
2022-10-23T03:44:57.066Z,9.25
2022-10-23T03:47:23.454Z,9.26
2022-10-23T03:49:49.726Z,9.23
2022-10-23T03:52:16.067Z,9.24
2022-10-23T03:54:42.426Z,9.23
2022-10-23T03:57:08.722Z,9.26
2022-10-23T03:59:35.155Z,9.24
2022-10-23T04:02:01.593Z,9.22
2022-10-23T04:04:28.004Z,9.18
2022-10-23T04:06:54.431Z,9.23
2022-10-23T04:09:20.751Z,9.28
2022-10-23T04:11:47.093Z,9.28
2022-10-23T04:14:14.175Z,9.22
2022-10-23T04:16:40.692Z,9.27
2022-10-23T04:19:07.251Z,9.25
2022-10-23T04:21:34.071Z,9.25
2022-10-23T04:24:00.412Z,9.25
2022-10-23T04:26:26.682Z,9.24
2022-10-23T04:28:53.003Z,9.24
2022-10-23T04:31:19.311Z,9.19
2022-10-23T04:33:45.643Z,9.23
2022-10-23T04:36:11.978Z,9.24
2022-10-23T04:38:38.296Z,9.26
2022-10-23T04:41:04.662Z,9.18
2022-10-23T04:43:30.970Z,9.19
2022-10-23T04:45:57.254Z,9.08
2022-10-23T04:48:25.652Z,8.95
2022-10-23T04:50:59.907Z,8.93
2022-10-23T04:53:27.535Z,8.93
2022-10-23T04:55:56.186Z,8.87
2022-10-23T04:58:23.526Z,8.96
2022-10-23T05:00:50.289Z,8.96
2022-10-23T05:03:18.116Z,8.93
2022-10-23T05:05:45.794Z,8.86
2022-10-23T05:08:15.560Z,8.95
2022-10-23T05:10:44.313Z,8.91
2022-10-23T05:13:10.591Z,8.95
2022-10-23T05:15:36.935Z,8.89
2022-10-23T05:18:11.947Z,8.83
2022-10-23T05:20:39.618Z,8.87
2022-10-23T05:23:09.847Z,8.95
2022-10-23T05:25:36.802Z,8.92
2022-10-23T05:28:03.497Z,8.92
2022-10-23T05:30:30.114Z,8.88
2022-10-23T05:32:56.424Z,8.89
2022-10-23T05:35:23.380Z,8.86
2022-10-23T05:37:53.358Z,8.95
2022-10-23T05:40:20.046Z,8.95
2022-10-23T05:42:46.703Z,9.00
2022-10-23T05:45:13.173Z,8.98
2022-10-23T05:47:39.489Z,9.05
2022-10-23T05:50:06.052Z,9.06
2022-10-23T05:52:32.356Z,9.02
2022-10-23T05:54:58.622Z,9.00
2022-10-23T05:57:24.939Z,9.02
2022-10-23T05:59:51.263Z,9.04
2022-10-23T06:02:17.623Z,9.16
2022-10-23T06:04:43.998Z,9.12
2022-10-23T06:07:10.286Z,9.23
2022-10-23T06:09:36.570Z,9.28
2022-10-23T06:12:02.951Z,9.25
2022-10-23T06:14:29.276Z,9.17
2022-10-23T06:16:55.624Z,9.13
2022-10-23T06:19:21.989Z,9.31
2022-10-23T06:21:48.379Z,9.23
2022-10-23T06:24:14.820Z,9.29
2022-10-23T06:26:41.081Z,9.25
2022-10-23T06:29:07.494Z,9.36
2022-10-23T06:31:33.792Z,9.33
2022-10-23T06:34:00.306Z,9.39
2022-10-23T06:36:27.420Z,9.28
2022-10-23T06:38:53.753Z,9.30
2022-10-23T06:41:21.997Z,9.39
2022-10-23T06:43:50.522Z,9.53
2022-10-23T06:46:18.878Z,9.51
2022-10-23T06:48:45.186Z,9.65
2022-10-23T06:51:13.278Z,9.69
2022-10-23T06:53:40.374Z,9.73
2022-10-23T06:56:07.806Z,9.79
2022-10-23T06:58:35.575Z,9.79
2022-10-23T07:01:03.885Z,9.75
2022-10-23T07:03:30.348Z,9.74
2022-10-23T07:06:00.760Z,9.86
2022-10-23T07:08:27.075Z,9.83
2022-10-23T07:10:53.531Z,9.82
2022-10-23T07:13:19.873Z,9.88
2022-10-23T07:15:46.258Z,9.97
2022-10-23T07:18:14.608Z,10.12
2022-10-23T07:20:41.761Z,10.31
2022-10-23T07:23:11.059Z,10.28
2022-10-23T07:25:37.746Z,10.25
2022-10-23T07:28:05.028Z,10.19
2022-10-23T07:30:31.546Z,10.32
2022-10-23T07:32:57.853Z,10.54
2022-10-23T07:35:24.326Z,10.48
2022-10-23T07:37:50.700Z,10.54
2022-10-23T07:40:18.661Z,10.53
2022-10-23T07:42:45.077Z,10.74
2022-10-23T07:45:12.400Z,10.73
2022-10-23T07:47:38.730Z,10.70
2022-10-23T07:50:05.455Z,11.12
2022-10-23T07:52:35.043Z,11.39
2022-10-23T07:55:02.381Z,11.34
2022-10-23T07:57:28.643Z,11.43
2022-10-23T07:59:54.954Z,11.80
2022-10-23T08:02:21.296Z,11.68
2022-10-23T08:04:50.894Z,11.66
2022-10-23T08:07:17.423Z,11.51
2022-10-23T08:09:43.722Z,11.64
2022-10-23T08:12:10.333Z,11.83
2022-10-23T08:14:36.666Z,11.98
2022-10-23T08:17:04.676Z,11.83
2022-10-23T08:19:31.075Z,12.03
2022-10-23T08:21:57.563Z,12.22
2022-10-23T08:24:23.867Z,12.14
2022-10-23T08:26:50.306Z,12.25
2022-10-23T08:29:16.848Z,12.24
2022-10-23T08:31:43.197Z,12.18
2022-10-23T08:34:09.560Z,12.31
2022-10-23T08:36:36.428Z,12.21
2022-10-23T08:39:02.749Z,12.16
2022-10-23T08:41:35.938Z,12.04
2022-10-23T08:44:14.497Z,12.29
2022-10-23T08:46:44.535Z,12.47
2022-10-23T08:49:13.814Z,12.77
2022-10-23T08:51:47.354Z,12.50
2022-10-23T08:54:24.240Z,12.66
2022-10-23T08:57:16.013Z,12.80
2022-10-23T08:59:55.847Z,12.89
2022-10-23T09:02:27.936Z,13.04
2022-10-23T09:04:57.144Z,13.12
2022-10-23T09:07:42.849Z,13.26
2022-10-23T09:10:23.200Z,13.15
2022-10-23T09:12:49.779Z,13.47
2022-10-23T09:15:29.951Z,13.44
2022-10-23T09:17:59.940Z,13.55
2022-10-23T09:20:35.333Z,13.70
2022-10-23T09:23:16.207Z,13.41
2022-10-23T09:25:43.280Z,13.60
2022-10-23T09:28:20.620Z,13.63
2022-10-23T09:30:48.282Z,13.75
2022-10-23T09:33:22.033Z,13.63
2022-10-23T09:35:53.163Z,13.69
2022-10-23T09:38:31.869Z,13.67
2022-10-23T09:41:20.175Z,13.46
2022-10-23T09:43:46.576Z,13.79
2022-10-23T09:46:13.175Z,13.90
2022-10-23T09:48:42.116Z,14.21
2022-10-23T09:51:20.686Z,13.75
2022-10-23T09:53:54.243Z,13.94
2022-10-23T09:56:31.338Z,14.20
2022-10-23T09:58:59.097Z,14.59
2022-10-23T10:01:29.386Z,14.80
2022-10-23T10:03:56.826Z,14.68
2022-10-23T10:06:32.136Z,14.64
2022-10-23T10:09:16.055Z,15.22
2022-10-23T10:11:49.892Z,15.07
2022-10-23T10:14:31.615Z,15.58
2022-10-23T10:17:04.439Z,16.22
2022-10-23T10:20:05.446Z,16.01
2022-10-23T10:22:38.908Z,16.70
2022-10-23T10:25:29.019Z,15.96
2022-10-23T10:28:17.271Z,16.36
2022-10-23T10:31:17.791Z,16.47
2022-10-23T10:34:02.962Z,16.39
2022-10-23T10:36:41.925Z,17.34
2022-10-23T10:39:38.215Z,17.80
2022-10-23T10:42:31.073Z,18.32
2022-10-23T10:45:24.043Z,18.06
2022-10-23T10:48:15.557Z,17.40
2022-10-23T10:50:52.080Z,18.01
2022-10-23T10:53:27.156Z,17.36
2022-10-23T10:56:00.155Z,17.63
2022-10-23T10:58:41.850Z,17.82
2022-10-23T11:01:26.639Z,17.35
2022-10-23T11:04:11.928Z,17.23
2022-10-23T11:06:41.527Z,18.19
2022-10-23T11:09:21.731Z,17.94
2022-10-23T11:11:48.773Z,18.42
2022-10-23T11:14:17.010Z,18.34
2022-10-23T11:16:47.922Z,18.02
2022-10-23T11:19:29.210Z,17.65
2022-10-23T11:22:03.134Z,18.57
2022-10-23T11:24:35.480Z,18.41
2022-10-23T11:27:10.922Z,18.69
2022-10-23T11:29:50.692Z,19.04
2022-10-23T11:32:26.088Z,18.73
2022-10-23T11:35:08.504Z,18.78
2022-10-23T11:37:34.969Z,18.83
2022-10-23T11:40:07.079Z,18.99
2022-10-23T11:42:46.992Z,18.78
2022-10-23T11:45:34.815Z,19.50
2022-10-23T11:48:03.971Z,20.19
2022-10-23T11:50:33.679Z,19.32
2022-10-23T11:53:14.564Z,19.11
2022-10-23T11:55:57.249Z,19.97
2022-10-23T11:58:31.466Z,19.14
2022-10-23T12:01:18.073Z,19.12
2022-10-23T12:04:16.506Z,18.56
2022-10-23T12:06:46.991Z,18.75
2022-10-23T12:09:37.295Z,18.34
2022-10-23T12:12:09.827Z,18.27
2022-10-23T12:14:38.509Z,18.90
2022-10-23T12:17:23.119Z,18.23
2022-10-23T12:19:54.935Z,18.67
2022-10-23T12:22:27.986Z,18.53
2022-10-23T12:25:07.138Z,18.13
2022-10-23T12:27:48.723Z,18.03
2022-10-23T12:30:39.856Z,18.15
2022-10-23T12:33:14.266Z,18.23
2022-10-23T12:36:22.461Z,17.92
2022-10-23T12:38:54.631Z,17.63
2022-10-23T12:41:29.479Z,17.61
2022-10-23T12:44:02.389Z,17.92
2022-10-23T12:46:36.236Z,17.38
2022-10-23T12:49:12.471Z,17.66
2022-10-23T12:51:38.746Z,17.58
2022-10-23T12:54:15.753Z,17.53
2022-10-23T12:56:44.072Z,17.48
2022-10-23T12:59:20.438Z,17.46
2022-10-23T13:01:50.462Z,17.39
2022-10-23T13:04:31.029Z,17.37
2022-10-23T13:07:00.663Z,17.77
2022-10-23T13:09:32.789Z,17.68
2022-10-23T13:12:02.614Z,17.73
2022-10-23T13:14:40.646Z,17.65
2022-10-23T13:17:11.527Z,17.83
2022-10-23T13:19:37.984Z,17.93
2022-10-23T13:22:17.826Z,17.41
2022-10-23T13:24:44.296Z,17.41
2022-10-23T13:27:33.376Z,17.44
2022-10-23T13:30:00.208Z,17.41
2022-10-23T13:32:29.794Z,17.43
2022-10-23T13:35:10.194Z,17.20
2022-10-23T13:40:26.134Z,17.52
2022-10-23T13:42:57.056Z,17.43
2022-10-23T13:45:25.622Z,17.46
2022-10-23T13:47:52.404Z,17.37
2022-10-23T13:50:19.875Z,17.58
2022-10-23T13:52:46.391Z,17.51
2022-10-23T13:55:21.997Z,17.48
2022-10-23T13:57:48.343Z,17.49
2022-10-23T14:00:15.182Z,17.60
2022-10-23T14:02:41.916Z,17.67
2022-10-23T14:05:09.061Z,17.69
2022-10-23T14:07:35.362Z,17.81
2022-10-23T14:10:01.708Z,17.63
2022-10-23T14:12:27.998Z,17.77
2022-10-23T14:14:54.324Z,17.86
2022-10-23T14:17:21.134Z,18.07
2022-10-23T14:19:47.546Z,17.97
2022-10-23T14:22:13.912Z,18.11
2022-10-23T14:24:40.264Z,18.05
2022-10-23T14:27:06.557Z,17.89
2022-10-23T14:29:32.874Z,17.86
2022-10-23T14:31:59.179Z,17.84
2022-10-23T14:34:25.662Z,17.86
2022-10-23T14:37:07.496Z,17.82
2022-10-23T14:39:35.097Z,17.80
2022-10-23T14:42:01.441Z,17.78
2022-10-23T14:44:27.895Z,17.59
2022-10-23T14:46:54.244Z,17.57
2022-10-23T14:49:20.625Z,17.56
2022-10-23T14:51:46.934Z,17.44
2022-10-23T14:54:13.339Z,17.44
2022-10-23T14:56:40.694Z,17.40
2022-10-23T14:59:07.898Z,17.28
2022-10-23T15:01:37.806Z,17.22
2022-10-23T15:04:05.063Z,17.06
2022-10-23T15:06:33.107Z,17.03
2022-10-23T15:08:59.639Z,16.98
2022-10-23T15:11:26.822Z,16.88
2022-10-23T15:13:54.590Z,16.84
2022-10-23T15:16:22.776Z,16.71
2022-10-23T15:18:53.866Z,16.70
2022-10-23T15:21:20.272Z,16.79
2022-10-23T15:23:46.918Z,16.73
2022-10-23T15:26:23.541Z,16.68
2022-10-23T15:28:58.347Z,16.59
2022-10-23T15:31:42.982Z,16.51
2022-10-23T15:34:11.623Z,16.46
2022-10-23T15:36:37.951Z,16.31
2022-10-23T15:39:09.423Z,16.26
2022-10-23T15:41:37.562Z,16.20
2022-10-23T15:44:06.113Z,16.12
2022-10-23T15:46:32.746Z,16.10
2022-10-23T15:48:59.095Z,16.02
2022-10-23T15:51:26.051Z,15.92
2022-10-23T15:53:52.462Z,15.83
2022-10-23T15:56:18.772Z,15.82
2022-10-23T15:58:45.327Z,15.70
2022-10-23T16:01:11.783Z,15.72
2022-10-23T16:03:39.019Z,15.62
2022-10-23T16:06:08.135Z,15.57
2022-10-23T16:08:34.678Z,15.50
2022-10-23T16:11:01.529Z,15.44
2022-10-23T16:13:28.449Z,15.35
2022-10-23T16:15:54.829Z,15.35
2022-10-23T16:18:22.675Z,15.30
2022-10-23T16:20:50.837Z,15.32
2022-10-23T16:23:17.516Z,15.33
2022-10-23T16:25:43.960Z,15.33
2022-10-23T16:28:10.276Z,15.27
2022-10-23T16:30:41.483Z,15.19
2022-10-23T16:33:08.478Z,15.18
2022-10-23T16:35:35.716Z,15.26
2022-10-23T16:38:02.067Z,15.22
2022-10-23T16:40:28.518Z,15.13
2022-10-23T16:42:54.837Z,15.09
2022-10-23T16:45:21.298Z,15.04
2022-10-23T16:47:47.579Z,14.98
2022-10-23T16:50:15.284Z,15.01
2022-10-23T16:52:42.348Z,15.01
2022-10-23T16:55:09.376Z,14.93
2022-10-23T16:57:36.709Z,14.80
2022-10-23T17:00:05.295Z,14.75
2022-10-23T17:02:31.945Z,14.77
2022-10-23T17:04:58.520Z,14.73
2022-10-23T17:07:25.101Z,14.71
2022-10-23T17:09:51.409Z,14.76
2022-10-23T17:12:17.766Z,14.73
2022-10-23T17:14:44.108Z,14.63
2022-10-23T17:17:10.816Z,14.61
2022-10-23T17:19:45.139Z,14.63
2022-10-23T17:22:12.552Z,14.66
2022-10-23T17:24:40.143Z,14.53
2022-10-23T17:27:06.884Z,14.55
2022-10-23T17:29:33.462Z,14.53
2022-10-23T17:32:00.022Z,14.49
2022-10-23T17:34:26.387Z,14.55
2022-10-23T17:36:55.175Z,14.49
2022-10-23T17:39:27.192Z,14.56
2022-10-23T17:41:54.795Z,14.55
2022-10-23T17:44:21.400Z,14.57
2022-10-23T17:46:53.406Z,14.50
2022-10-23T17:49:20.618Z,14.47
2022-10-23T17:51:54.466Z,14.51
2022-10-23T17:54:20.920Z,14.61
2022-10-23T17:56:47.204Z,14.61
2022-10-23T17:59:15.523Z,14.54
2022-10-23T18:01:46.788Z,14.46
2022-10-23T18:04:14.259Z,14.30
2022-10-23T18:06:44.189Z,14.48
2022-10-23T18:09:11.711Z,14.31
2022-10-23T18:11:45.396Z,14.42
2022-10-23T18:14:15.343Z,14.35
2022-10-23T18:16:41.712Z,14.42
2022-10-23T18:19:08.590Z,14.49
2022-10-23T18:21:35.806Z,14.59
2022-10-23T18:24:02.271Z,14.52
2022-10-23T18:26:30.687Z,14.59
2022-10-23T18:28:59.058Z,14.57
2022-10-23T18:31:29.535Z,14.44
2022-10-23T18:34:04.195Z,14.46
2022-10-23T18:36:33.283Z,14.28
2022-10-23T18:38:59.900Z,14.28
2022-10-23T18:41:27.161Z,14.21
2022-10-23T18:43:54.326Z,14.27
2022-10-23T18:46:21.448Z,14.31
2022-10-23T18:48:50.476Z,14.15
2022-10-23T18:51:31.122Z,14.14
2022-10-23T18:54:00.799Z,14.18
2022-10-23T18:56:27.840Z,14.08
2022-10-23T18:58:56.261Z,14.06
2022-10-23T19:01:23.218Z,14.11
2022-10-23T19:03:49.838Z,14.10
2022-10-23T19:06:17.070Z,14.07
2022-10-23T19:08:45.095Z,13.90
2022-10-23T19:11:13.518Z,13.94
2022-10-23T19:13:40.333Z,14.05
2022-10-23T19:16:10.451Z,13.96
2022-10-23T19:18:40.424Z,14.02
2022-10-23T19:21:07.579Z,14.02
2022-10-23T19:23:36.374Z,13.90
2022-10-23T19:26:09.426Z,13.75
2022-10-23T19:28:42.264Z,13.72
2022-10-23T19:31:09.828Z,13.92
2022-10-23T19:33:38.377Z,13.72
2022-10-23T19:36:08.871Z,13.80
2022-10-23T19:38:40.137Z,13.85
2022-10-23T19:41:06.574Z,13.79
2022-10-23T19:43:33.127Z,13.84
2022-10-23T19:46:06.318Z,13.94
2022-10-23T19:48:35.776Z,13.98
2022-10-23T19:51:02.109Z,13.96
2022-10-23T19:53:28.471Z,13.97
2022-10-23T19:56:02.792Z,14.03
2022-10-23T19:58:29.122Z,14.12
2022-10-23T20:00:55.435Z,14.11
2022-10-23T20:03:21.758Z,14.18
2022-10-23T20:05:48.058Z,14.08
2022-10-23T20:08:14.362Z,14.06
2022-10-23T20:10:44.337Z,14.07
2022-10-23T20:13:20.516Z,14.15
2022-10-23T20:15:47.003Z,14.06
2022-10-23T20:18:13.280Z,14.20
2022-10-23T20:20:41.279Z,14.15
2022-10-23T20:23:07.811Z,14.11
2022-10-23T20:25:34.161Z,14.19
2022-10-23T20:28:00.484Z,14.20
2022-10-23T20:30:26.859Z,14.07
2022-10-23T20:32:53.185Z,14.15
2022-10-23T20:35:19.482Z,14.17
2022-10-23T20:37:46.212Z,14.16
2022-10-23T20:40:12.916Z,14.06
2022-10-23T20:42:39.220Z,14.11
2022-10-23T20:45:06.027Z,14.18
2022-10-23T20:47:32.336Z,14.15
2022-10-23T20:49:58.898Z,14.14
2022-10-23T20:52:26.112Z,14.10
2022-10-23T20:54:52.410Z,14.07
2022-10-23T20:57:21.238Z,14.05
2022-10-23T20:59:47.779Z,14.06
2022-10-23T21:02:14.144Z,13.99
2022-10-23T21:04:40.549Z,14.13
2022-10-23T21:07:11.420Z,13.86
2022-10-23T21:09:39.387Z,13.74
2022-10-23T21:12:06.469Z,13.93
2022-10-23T21:14:33.377Z,13.94
2022-10-23T21:16:59.708Z,13.88
2022-10-23T21:19:26.065Z,13.85
2022-10-23T21:21:52.460Z,14.00
2022-10-23T21:24:18.812Z,13.95
2022-10-23T21:26:45.188Z,14.00
2022-10-23T21:29:18.581Z,14.01
2022-10-23T21:31:51.812Z,14.02
2022-10-23T21:34:18.146Z,14.03
2022-10-23T21:37:10.896Z,14.01
2022-10-23T21:39:33.095Z,13.84
2022-10-23T21:41:59.396Z,13.92
2022-10-23T21:44:25.718Z,13.99
2022-10-23T21:46:52.118Z,13.94
2022-10-23T21:49:18.418Z,14.02
2022-10-23T21:51:44.692Z,13.90
2022-10-23T21:54:14.668Z,13.86
2022-10-23T21:56:46.633Z,13.96
2022-10-23T21:59:17.322Z,14.09
2022-10-23T22:01:45.453Z,14.01
2022-10-23T22:04:14.163Z,14.06
2022-10-23T22:06:41.952Z,14.14
2022-10-23T22:09:09.729Z,14.10
2022-10-23T22:11:36.163Z,14.01
2022-10-23T22:14:03.461Z,14.00
2022-10-23T22:16:29.866Z,14.03
2022-10-23T22:18:56.316Z,14.08
2022-10-23T22:21:25.924Z,14.10
2022-10-23T22:23:55.122Z,14.07
2022-10-23T22:26:23.478Z,14.15
2022-10-23T22:28:51.827Z,14.11
2022-10-23T22:31:21.286Z,14.11
2022-10-23T22:33:47.992Z,14.11
2022-10-23T22:36:14.978Z,14.11
2022-10-23T22:38:41.473Z,14.12
2022-10-23T22:41:08.787Z,14.02
2022-10-23T22:43:35.250Z,14.03
2022-10-23T22:46:03.473Z,13.96
2022-10-23T22:48:29.854Z,13.96
2022-10-23T22:50:56.155Z,13.99
2022-10-23T22:53:22.545Z,13.97
2022-10-23T22:55:48.899Z,13.95
2022-10-23T22:58:15.186Z,14.03
2022-10-23T23:00:43.577Z,13.81
2022-10-23T23:03:10.126Z,13.88
2022-10-23T23:08:14.734Z,13.85
2022-10-23T23:10:41.195Z,13.99
2022-10-23T23:13:07.855Z,14.14
2022-10-23T23:15:39.378Z,14.18
2022-10-23T23:18:05.672Z,14.37
2022-10-23T23:20:31.963Z,14.40
2022-10-23T23:22:58.275Z,14.53
2022-10-23T23:25:24.599Z,14.61
2022-10-23T23:27:50.897Z,14.70
2022-10-23T23:30:17.274Z,14.91
2022-10-23T23:32:43.924Z,14.92
2022-10-23T23:35:10.543Z,14.89
2022-10-23T23:37:36.838Z,14.85
2022-10-23T23:40:04.034Z,14.81
2022-10-23T23:42:30.635Z,14.94
2022-10-23T23:45:02.696Z,14.83
2022-10-23T23:47:40.513Z,14.75
2022-10-23T23:50:08.850Z,14.71
2022-10-23T23:52:35.242Z,14.68
2022-10-23T23:55:01.570Z,14.64
2022-10-23T23:57:27.936Z,14.59
2022-10-23T23:59:54.221Z,14.58
